Kellerville, Illinois
Current Conditions -  °F | °C
As of 5:54 PM on Thursday 18 Dec 2014 (Local Time) from KUIN Reporting Station
Overcast Overcast  
Wind Chill: 21°   Ceiling: 3000
Heat Index: 28°   Visibility: 10mi
Dew Point: 23°   Wind: 7mph
Humidity: 81%   Direction: 40°NE
Pressure: 30.26"   Gusts: NA
Location:  39.9716°N, 90.933°W
Report Text: KUIN 182354Z AUTO 04006KT 10SM OVC030 M02/M05 A3026 RMK AO2 SLP254 60000 T10221050 11011 21022 51010
Loading
Personal Weather Stations






























Interactive Weather Map New forecast layout! Learn more

10-Day Weather Forecast

Advertisements
Track Severe Weather on mobile